sensor_id;sensor_type;location;lat;lon;timestamp;pressure;altitude;pressure_sealevel;temperature;humidity
53340;BME280;46212;50.258;19.062;2023-05-24T00:02:05;98162.97;;;16.19;100.00
53340;BME280;46212;50.258;19.062;2023-05-24T00:04:31;98169.03;;;16.29;100.00
53340;BME280;46212;50.258;19.062;2023-05-24T00:06:56;98159.16;;;16.22;100.00
53340;BME280;46212;50.258;19.062;2023-05-24T00:09:22;98167.53;;;16.22;100.00
53340;BME280;46212;50.258;19.062;2023-05-24T00:11:48;98167.53;;;16.22;100.00
53340;BME280;46212;50.258;19.062;2023-05-24T00:14:13;98163.19;;;16.27;100.00
53340;BME280;46212;50.258;19.062;2023-05-24T00:16:39;98164.47;;;16.37;100.00
53340;BME280;46212;50.258;19.062;2023-05-24T00:19:04;98161.94;;;16.28;100.00
53340;BME280;46212;50.258;19.062;2023-05-24T00:21:29;98169.03;;;16.29;100.00
53340;BME280;46212;50.258;19.062;2023-05-24T00:23:56;98170.56;;;16.24;100.00
53340;BME280;46212;50.258;19.062;2023-05-24T00:26:22;98176.13;;;16.24;100.00
53340;BME280;46212;50.258;19.062;2023-05-24T00:28:47;98178.41;;;16.20;100.00
53340;BME280;46212;50.258;19.062;2023-05-24T00:31:13;98175.38;;;16.35;100.00
53340;BME280;46212;50.258;19.062;2023-05-24T00:33:38;98177.16;;;16.43;99.35
53340;BME280;46212;50.258;19.062;2023-05-24T00:36:03;98169.81;;;16.40;98.86
53340;BME280;46212;50.258;19.062;2023-05-24T00:38:29;98173.34;;;16.24;99.49
53340;BME280;46212;50.258;19.062;2023-05-24T00:40:54;98171.31;;;16.30;99.62
53340;BME280;46212;50.258;19.062;2023-05-24T00:43:25;98165.75;;;16.47;98.81
53340;BME280;46212;50.258;19.062;2023-05-24T00:46:15;98174.38;;;16.49;97.84
53340;BME280;46212;50.258;19.062;2023-05-24T00:48:41;98176.16;;;16.41;98.16
53340;BME280;46212;50.258;19.062;2023-05-24T00:51:07;98171.06;;;16.34;98.46
53340;BME280;46212;50.258;19.062;2023-05-24T00:53:32;98179.69;;;16.47;97.43
53340;BME280;46212;50.258;19.062;2023-05-24T00:56:00;98172.88;;;16.42;97.88
53340;BME280;46212;50.258;19.062;2023-05-24T00:58:27;98182.25;;;16.51;96.37
53340;BME280;46212;50.258;19.062;2023-05-24T01:00:58;98180.72;;;16.49;97.21
53340;BME280;46212;50.258;19.062;2023-05-24T01:03:24;98173.38;;;16.41;96.27
53340;BME280;46212;50.258;19.062;2023-05-24T01:05:58;98179.69;;;16.41;96.49
53340;BME280;46212;50.258;19.062;2023-05-24T01:14:40;98180.69;;;16.27;96.20
53340;BME280;46212;50.258;19.062;2023-05-24T01:18:11;98185.00;;;16.28;96.21
53340;BME280;46212;50.258;19.062;2023-05-24T01:20:17;98185.44;;;16.05;97.04
53340;BME280;46212;50.258;19.062;2023-05-24T01:28:38;98196.56;;;15.88;97.75
53340;BME280;46212;50.258;19.062;2023-05-24T01:31:03;98190.72;;;15.86;97.88
53340;BME280;46212;50.258;19.062;2023-05-24T01:33:31;98195.03;;;15.87;97.42
53340;BME280;46212;50.258;19.062;2023-05-24T01:35:56;98195.78;;;15.87;97.56
53340;BME280;46212;50.258;19.062;2023-05-24T01:38:21;98195.25;;;15.78;97.25
53340;BME280;46212;50.258;19.062;2023-05-24T01:40:49;98195.50;;;15.80;97.81
53340;BME280;46212;50.258;19.062;2023-05-24T01:46:37;98201.81;;;15.69;98.06
53340;BME280;46212;50.258;19.062;2023-05-24T01:49:43;98203.38;;;15.76;97.50
53340;BME280;46212;50.258;19.062;2023-05-24T01:52:16;98206.41;;;15.78;97.02
53340;BME280;46212;50.258;19.062;2023-05-24T01:54:47;98210.75;;;15.95;96.17
53340;BME280;46212;50.258;19.062;2023-05-24T01:57:15;98205.69;;;15.88;96.20
53340;BME280;46212;50.258;19.062;2023-05-24T01:59:43;98213.75;;;15.81;96.85
53340;BME280;46212;50.258;19.062;2023-05-24T02:02:10;98213.28;;;15.88;96.31
53340;BME280;46212;50.258;19.062;2023-05-24T02:04:35;98215.84;;;16.03;95.78
53340;BME280;46212;50.258;19.062;2023-05-24T02:07:01;98216.59;;;15.98;95.47
53340;BME280;46212;50.258;19.062;2023-05-24T02:09:26;98222.63;;;15.90;95.99
53340;BME280;46212;50.258;19.062;2023-05-24T02:11:51;98212.75;;;15.84;96.25
53340;BME280;46212;50.258;19.062;2023-05-24T02:14:17;98223.63;;;15.82;96.24
53340;BME280;46212;50.258;19.062;2023-05-24T02:16:44;98233.22;;;15.81;96.52
53340;BME280;46212;50.258;19.062;2023-05-24T02:19:14;98230.34;;;15.59;97.50
53340;BME280;46212;50.258;19.062;2023-05-24T02:21:39;98229.69;;;15.80;97.00
53340;BME280;46212;50.258;19.062;2023-05-24T02:24:05;98228.41;;;15.76;96.43
53340;BME280;46212;50.258;19.062;2023-05-24T02:26:32;98230.66;;;15.72;96.33
53340;BME280;46212;50.258;19.062;2023-05-24T02:28:57;98227.41;;;15.79;96.39
53340;BME280;46212;50.258;19.062;2023-05-24T02:31:23;98230.38;;;15.70;96.39
53340;BME280;46212;50.258;19.062;2023-05-24T02:33:53;98231.94;;;15.76;96.60
53340;BME280;46212;50.258;19.062;2023-05-24T02:36:18;98234.72;;;15.76;96.31
53340;BME280;46212;50.258;19.062;2023-05-24T02:38:43;98234.72;;;15.71;96.73
53340;BME280;46212;50.258;19.062;2023-05-24T02:41:09;98237.69;;;15.62;96.54
53340;BME280;46212;50.258;19.062;2023-05-24T02:43:35;98232.13;;;15.56;97.46
53340;BME280;46212;50.258;19.062;2023-05-24T02:46:01;98233.63;;;15.57;96.84
53340;BME280;46212;50.258;19.062;2023-05-24T02:48:26;98235.72;;;15.68;96.83
53340;BME280;46212;50.258;19.062;2023-05-24T02:50:52;98238.94;;;15.61;97.32
53340;BME280;46212;50.258;19.062;2023-05-24T02:53:17;98240.97;;;15.60;96.54
53340;BME280;46212;50.258;19.062;2023-05-24T02:55:42;98245.28;;;15.61;97.01
53340;BME280;46212;50.258;19.062;2023-05-24T02:58:10;98243.00;;;15.60;96.56
53340;BME280;46212;50.258;19.062;2023-05-24T03:00:36;98235.44;;;15.66;97.08
53340;BME280;46212;50.258;19.062;2023-05-24T03:03:02;98247.59;;;15.63;96.86
53340;BME280;46212;50.258;19.062;2023-05-24T03:05:27;98243.25;;;15.56;96.75
53340;BME280;46212;50.258;19.062;2023-05-24T03:07:53;98252.84;;;15.55;96.71
53340;BME280;46212;50.258;19.062;2023-05-24T03:10:18;98248.22;;;15.47;97.15
53340;BME280;46212;50.258;19.062;2023-05-24T03:12:44;98243.16;;;15.45;97.11
53340;BME280;46212;50.258;19.062;2023-05-24T03:15:09;98254.03;;;15.43;97.79
53340;BME280;46212;50.258;19.062;2023-05-24T03:17:35;98243.97;;;15.51;96.92
53340;BME280;46212;50.258;19.062;2023-05-24T03:20:00;98248.03;;;15.50;96.68
53340;BME280;46212;50.258;19.062;2023-05-24T03:22:26;98245.50;;;15.52;96.72
53340;BME280;46212;50.258;19.062;2023-05-24T03:24:51;98252.84;;;15.55;96.96
53340;BME280;46212;50.258;19.062;2023-05-24T03:27:17;98252.00;;;15.43;96.99
53340;BME280;46212;50.258;19.062;2023-05-24T03:29:42;98257.19;;;15.62;96.55
53340;BME280;46212;50.258;19.062;2023-05-24T03:32:07;98251.84;;;15.58;96.30
53340;BME280;46212;50.258;19.062;2023-05-24T03:34:33;98252.63;;;15.59;96.24
53340;BME280;46212;50.258;19.062;2023-05-24T03:36:58;98251.81;;;15.53;96.39
53340;BME280;46212;50.258;19.062;2023-05-24T03:39:23;98250.06;;;15.55;96.48
53340;BME280;46212;50.258;19.062;2023-05-24T03:41:49;98245.75;;;15.54;96.48
53340;BME280;46212;50.258;19.062;2023-05-24T03:44:14;98254.59;;;15.53;96.23
53340;BME280;46212;50.258;19.062;2023-05-24T03:46:40;98255.38;;;15.53;96.44
53340;BME280;46212;50.258;19.062;2023-05-24T03:49:06;98260.94;;;15.53;96.13
53340;BME280;46212;50.258;19.062;2023-05-24T03:51:31;98260.22;;;15.64;96.11
53340;BME280;46212;50.258;19.062;2023-05-24T03:53:57;98257.94;;;15.62;95.18
53340;BME280;46212;50.258;19.062;2023-05-24T03:56:25;98258.50;;;15.66;95.48
53340;BME280;46212;50.258;19.062;2023-05-24T03:58:51;98263.06;;;15.69;94.92
53340;BME280;46212;50.258;19.062;2023-05-24T04:01:17;98261.22;;;15.61;94.53
53340;BME280;46212;50.258;19.062;2023-05-24T04:03:42;98257.66;;;15.60;95.10
53340;BME280;46212;50.258;19.062;2023-05-24T04:06:10;98270.38;;;15.67;94.41
53340;BME280;46212;50.258;19.062;2023-05-24T04:08:36;98277.91;;;15.61;94.42
53340;BME280;46212;50.258;19.062;2023-05-24T04:11:01;98270.63;;;15.63;94.81
53340;BME280;46212;50.258;19.062;2023-05-24T04:13:27;98275.91;;;15.61;94.87
53340;BME280;46212;50.258;19.062;2023-05-24T04:15:52;98273.41;;;15.63;94.98
53340;BME280;46212;50.258;19.062;2023-05-24T04:18:17;98273.63;;;15.60;95.03
53340;BME280;46212;50.258;19.062;2023-05-24T04:20:43;98276.44;;;15.65;95.21
53340;BME280;46212;50.258;19.062;2023-05-24T04:23:08;98281.97;;;15.60;95.11
53340;BME280;46212;50.258;19.062;2023-05-24T04:25:34;98292.59;;;15.61;95.04
53340;BME280;46212;50.258;19.062;2023-05-24T04:28:00;98290.34;;;15.60;95.31
53340;BME280;46212;50.258;19.062;2023-05-24T04:30:27;98290.09;;;15.63;95.35
53340;BME280;46212;50.258;19.062;2023-05-24T04:32:54;98295.41;;;15.67;95.53
53340;BME280;46212;50.258;19.062;2023-05-24T04:35:20;98305.53;;;15.64;95.09
53340;BME280;46212;50.258;19.062;2023-05-24T04:37:45;98304.72;;;15.53;95.04
53340;BME280;46212;50.258;19.062;2023-05-24T04:40:12;98319.78;;;15.40;96.29
53340;BME280;46212;50.258;19.062;2023-05-24T04:42:38;98328.75;;;15.24;96.21
53340;BME280;46212;50.258;19.062;2023-05-24T04:45:03;98320.53;;;15.10;96.50
53340;BME280;46212;50.258;19.062;2023-05-24T04:47:29;98323.09;;;15.13;96.43
53340;BME280;46212;50.258;19.062;2023-05-24T04:49:54;98330.81;;;14.98;95.78
53340;BME280;46212;50.258;19.062;2023-05-24T04:52:20;98324.41;;;14.86;96.58
53340;BME280;46212;50.258;19.062;2023-05-24T04:54:45;98337.75;;;14.82;97.04
53340;BME280;46212;50.258;19.062;2023-05-24T04:57:11;98339.97;;;14.78;97.18
53340;BME280;46212;50.258;19.062;2023-05-24T04:59:36;98346.72;;;14.72;96.57
53340;BME280;46212;50.258;19.062;2023-05-24T05:02:01;98342.88;;;14.64;96.72
53340;BME280;46212;50.258;19.062;2023-05-24T05:04:27;98348.16;;;14.62;96.31
53340;BME280;46212;50.258;19.062;2023-05-24T05:06:52;98360.13;;;14.48;96.91
53340;BME280;46212;50.258;19.062;2023-05-24T05:09:19;98354.75;;;14.44;97.04
53340;BME280;46212;50.258;19.062;2023-05-24T05:11:45;98365.63;;;14.42;96.93
53340;BME280;46212;50.258;19.062;2023-05-24T05:14:11;98370.53;;;14.32;97.09
53340;BME280;46212;50.258;19.062;2023-05-24T05:16:37;98367.63;;;14.42;97.42
53340;BME280;46212;50.258;19.062;2023-05-24T05:19:03;98373.94;;;14.42;97.74
53340;BME280;46212;50.258;19.062;2023-05-24T05:21:32;98376.50;;;14.25;97.21
53340;BME280;46212;50.258;19.062;2023-05-24T05:24:01;98388.38;;;14.26;97.91
53340;BME280;46212;50.258;19.062;2023-05-24T05:26:28;98380.94;;;14.38;96.83
53340;BME280;46212;50.258;19.062;2023-05-24T05:28:54;98387.47;;;14.34;96.50
53340;BME280;46212;50.258;19.062;2023-05-24T05:31:20;98401.06;;;14.32;94.74
53340;BME280;46212;50.258;19.062;2023-05-24T05:33:45;98399.94;;;14.24;94.82
53340;BME280;46212;50.258;19.062;2023-05-24T05:36:11;98392.16;;;14.08;94.56
53340;BME280;46212;50.258;19.062;2023-05-24T05:38:36;98402.72;;;14.04;94.63
53340;BME280;46212;50.258;19.062;2023-05-24T05:41:01;98399.44;;;14.06;94.77
53340;BME280;46212;50.258;19.062;2023-05-24T05:43:27;98409.38;;;14.12;93.55
53340;BME280;46212;50.258;19.062;2023-05-24T05:45:53;98417.44;;;14.30;92.26
53340;BME280;46212;50.258;19.062;2023-05-24T05:48:19;98419.69;;;14.26;91.98
53340;BME280;46212;50.258;19.062;2023-05-24T05:50:45;98418.28;;;14.16;92.65
53340;BME280;46212;50.258;19.062;2023-05-24T05:53:10;98425.28;;;14.12;93.46
53340;BME280;46212;50.258;19.062;2023-05-24T05:55:35;98422.44;;;14.06;93.69
53340;BME280;46212;50.258;19.062;2023-05-24T05:58:01;98432.09;;;14.11;93.88
53340;BME280;46212;50.258;19.062;2023-05-24T06:00:26;98437.53;;;14.20;93.46
53340;BME280;46212;50.258;19.062;2023-05-24T06:02:51;98438.19;;;14.15;93.57
53340;BME280;46212;50.258;19.062;2023-05-24T06:05:18;98437.00;;;14.01;93.75
53340;BME280;46212;50.258;19.062;2023-05-24T06:07:43;98441.16;;;13.91;94.40
53340;BME280;46212;50.258;19.062;2023-05-24T06:10:10;98443.41;;;14.07;94.05
53340;BME280;46212;50.258;19.062;2023-05-24T06:12:35;98451.00;;;13.92;92.84
53340;BME280;46212;50.258;19.062;2023-05-24T06:15:02;98453.75;;;13.92;92.77
53340;BME280;46212;50.258;19.062;2023-05-24T06:17:29;98460.19;;;13.83;92.37
53340;BME280;46212;50.258;19.062;2023-05-24T06:19:54;98473.19;;;13.92;92.08
53340;BME280;46212;50.258;19.062;2023-05-24T06:22:20;98471.78;;;13.82;91.79
53340;BME280;46212;50.258;19.062;2023-05-24T06:24:45;98476.56;;;13.81;91.76
53340;BME280;46212;50.258;19.062;2023-05-24T06:27:11;98487.28;;;13.74;91.37
53340;BME280;46212;50.258;19.062;2023-05-24T06:29:36;98485.22;;;13.69;91.58
53340;BME280;46212;50.258;19.062;2023-05-24T06:32:02;98499.47;;;13.62;91.77
53340;BME280;46212;50.258;19.062;2023-05-24T06:34:28;98487.59;;;13.61;91.50
53340;BME280;46212;50.258;19.062;2023-05-24T06:36:54;98505.50;;;13.60;92.16
53340;BME280;46212;50.258;19.062;2023-05-24T06:39:19;98499.00;;;13.63;91.06
53340;BME280;46212;50.258;19.062;2023-05-24T06:41:45;98505.38;;;13.55;91.52
53340;BME280;46212;50.258;19.062;2023-05-24T06:44:11;98508.16;;;13.40;91.62
53340;BME280;46212;50.258;19.062;2023-05-24T06:46:38;98509.75;;;13.32;92.51
53340;BME280;46212;50.258;19.062;2023-05-24T06:49:03;98506.34;;;13.37;92.79
53340;BME280;46212;50.258;19.062;2023-05-24T06:51:29;98506.81;;;13.36;93.15
53340;BME280;46212;50.258;19.062;2023-05-24T06:53:54;98515.03;;;13.30;92.93
53340;BME280;46212;50.258;19.062;2023-05-24T06:56:20;98520.13;;;13.32;92.91
53340;BME280;46212;50.258;19.062;2023-05-24T06:58:45;98520.84;;;13.32;92.01
53340;BME280;46212;50.258;19.062;2023-05-24T07:01:11;98516.06;;;13.18;93.26
53340;BME280;46212;50.258;19.062;2023-05-24T07:03:37;98516.00;;;13.27;92.91
53340;BME280;46212;50.258;19.062;2023-05-24T07:06:02;98532.22;;;13.19;93.51
53340;BME280;46212;50.258;19.062;2023-05-24T07:08:28;98524.09;;;13.16;92.81
53340;BME280;46212;50.258;19.062;2023-05-24T07:10:54;98527.44;;;13.20;93.20
53340;BME280;46212;50.258;19.062;2023-05-24T07:13:20;98531.88;;;13.03;93.75
53340;BME280;46212;50.258;19.062;2023-05-24T07:15:46;98543.22;;;12.90;94.67
53340;BME280;46212;50.258;19.062;2023-05-24T07:18:12;98546.00;;;12.90;94.49
53340;BME280;46212;50.258;19.062;2023-05-24T07:20:37;98546.63;;;12.85;94.65
53340;BME280;46212;50.258;19.062;2023-05-24T07:23:03;98549.56;;;12.82;94.82
53340;BME280;46212;50.258;19.062;2023-05-24T07:25:29;98550.94;;;12.86;95.11
53340;BME280;46212;50.258;19.062;2023-05-24T07:27:55;98555.34;;;12.93;95.18
53340;BME280;46212;50.258;19.062;2023-05-24T07:30:21;98558.06;;;13.02;94.20
53340;BME280;46212;50.258;19.062;2023-05-24T07:32:46;98560.63;;;13.14;93.73
53340;BME280;46212;50.258;19.062;2023-05-24T07:35:12;98554.41;;;13.19;92.92
53340;BME280;46212;50.258;19.062;2023-05-24T07:37:38;98554.03;;;13.26;92.62
53340;BME280;46212;50.258;19.062;2023-05-24T07:40:05;98556.63;;;13.30;92.14
53340;BME280;46212;50.258;19.062;2023-05-24T07:42:34;98564.59;;;13.37;91.71
53340;BME280;46212;50.258;19.062;2023-05-24T07:44:59;98566.41;;;13.40;90.93
53340;BME280;46212;50.258;19.062;2023-05-24T07:47:25;98571.19;;;13.40;90.88
53340;BME280;46212;50.258;19.062;2023-05-24T07:49:50;98571.78;;;13.44;90.49
53340;BME280;46212;50.258;19.062;2023-05-24T07:52:15;98574.75;;;13.40;90.50
53340;BME280;46212;50.258;19.062;2023-05-24T07:54:41;98570.66;;;13.50;90.48
53340;BME280;46212;50.258;19.062;2023-05-24T07:57:06;98567.59;;;13.63;89.54
53340;BME280;46212;50.258;19.062;2023-05-24T07:59:32;98572.00;;;13.84;88.96
53340;BME280;46212;50.258;19.062;2023-05-24T08:01:57;98568.38;;;13.78;88.93
53340;BME280;46212;50.258;19.062;2023-05-24T08:04:28;98571.44;;;13.95;87.55
53340;BME280;46212;50.258;19.062;2023-05-24T08:06:54;98568.75;;;14.00;87.49
53340;BME280;46212;50.258;19.062;2023-05-24T08:09:19;98581.47;;;14.07;87.44
53340;BME280;46212;50.258;19.062;2023-05-24T08:11:45;98579.47;;;14.07;86.63
53340;BME280;46212;50.258;19.062;2023-05-24T08:14:10;98583.03;;;14.08;86.17
53340;BME280;46212;50.258;19.062;2023-05-24T08:16:36;98590.78;;;14.04;86.56
53340;BME280;46212;50.258;19.062;2023-05-24T08:19:01;98587.63;;;14.11;86.44
53340;BME280;46212;50.258;19.062;2023-05-24T08:21:26;98583.69;;;14.17;85.39
53340;BME280;46212;50.258;19.062;2023-05-24T08:23:53;98595.66;;;14.23;84.46
53340;BME280;46212;50.258;19.062;2023-05-24T08:26:18;98603.22;;;14.23;84.98
53340;BME280;46212;50.258;19.062;2023-05-24T08:28:45;98604.16;;;14.20;85.13
53340;BME280;46212;50.258;19.062;2023-05-24T08:31:10;98608.00;;;14.22;84.98
53340;BME280;46212;50.258;19.062;2023-05-24T08:33:36;98604.75;;;14.09;85.09
53340;BME280;46212;50.258;19.062;2023-05-24T08:36:01;98617.84;;;14.09;85.36
53340;BME280;46212;50.258;19.062;2023-05-24T08:38:27;98622.25;;;13.86;86.01
53340;BME280;46212;50.258;19.062;2023-05-24T08:40:53;98626.28;;;13.85;86.67
53340;BME280;46212;50.258;19.062;2023-05-24T08:43:20;98627.63;;;13.90;85.77
53340;BME280;46212;50.258;19.062;2023-05-24T08:45:47;98632.78;;;13.82;86.07
53340;BME280;46212;50.258;19.062;2023-05-24T08:48:14;98638.72;;;13.75;86.28
53340;BME280;46212;50.258;19.062;2023-05-24T08:50:41;98646.63;;;13.67;86.25
53340;BME280;46212;50.258;19.062;2023-05-24T08:53:07;98644.88;;;13.55;86.47
53340;BME280;46212;50.258;19.062;2023-05-24T08:55:33;98653.69;;;13.54;86.91
53340;BME280;46212;50.258;19.062;2023-05-24T08:58:00;98651.28;;;13.47;86.65
53340;BME280;46212;50.258;19.062;2023-05-24T09:00:25;98654.69;;;13.42;87.09
53340;BME280;46212;50.258;19.062;2023-05-24T09:02:52;98660.06;;;13.45;87.09
53340;BME280;46212;50.258;19.062;2023-05-24T09:05:18;98655.56;;;13.48;86.44
53340;BME280;46212;50.258;19.062;2023-05-24T09:07:47;98662.63;;;13.34;86.88
53340;BME280;46212;50.258;19.062;2023-05-24T09:10:12;98669.50;;;13.39;86.99
53340;BME280;46212;50.258;19.062;2023-05-24T09:12:39;98668.16;;;13.34;87.16
53340;BME280;46212;50.258;19.062;2023-05-24T09:15:08;98675.13;;;13.29;87.81
53340;BME280;46212;50.258;19.062;2023-05-24T09:17:35;98684.56;;;13.47;88.40
53340;BME280;46212;50.258;19.062;2023-05-24T09:20:01;98681.94;;;13.67;86.01
53340;BME280;46212;50.258;19.062;2023-05-24T09:22:28;98685.63;;;13.73;85.30
53340;BME280;46212;50.258;19.062;2023-05-24T09:24:59;98682.63;;;13.76;85.15
53340;BME280;46212;50.258;19.062;2023-05-24T09:27:25;98687.22;;;13.65;85.67
53340;BME280;46212;50.258;19.062;2023-05-24T09:29:51;98690.84;;;13.71;85.67
53340;BME280;46212;50.258;19.062;2023-05-24T09:32:18;98689.31;;;13.70;85.84
53340;BME280;46212;50.258;19.062;2023-05-24T09:34:46;98694.59;;;13.68;85.82
53340;BME280;46212;50.258;19.062;2023-05-24T09:37:15;98697.88;;;13.81;85.04
53340;BME280;46212;50.258;19.062;2023-05-24T09:39:43;98700.84;;;13.92;84.14
53340;BME280;46212;50.258;19.062;2023-05-24T09:42:13;98703.75;;;13.98;84.41
53340;BME280;46212;50.258;19.062;2023-05-24T09:44:38;98698.19;;;13.98;82.91
53340;BME280;46212;50.258;19.062;2023-05-24T09:47:05;98704.22;;;13.96;82.59
53340;BME280;46212;50.258;19.062;2023-05-24T09:49:31;98698.47;;;13.85;83.02
53340;BME280;46212;50.258;19.062;2023-05-24T09:51:57;98709.06;;;13.87;82.90
53340;BME280;46212;50.258;19.062;2023-05-24T09:54:23;98703.72;;;13.83;82.84
53340;BME280;46212;50.258;19.062;2023-05-24T09:56:50;98708.91;;;13.90;82.75
53340;BME280;46212;50.258;19.062;2023-05-24T09:59:15;98705.41;;;14.04;82.59
53340;BME280;46212;50.258;19.062;2023-05-24T10:01:41;98706.75;;;14.23;81.85
53340;BME280;46212;50.258;19.062;2023-05-24T10:04:06;98701.41;;;14.34;80.48
53340;BME280;46212;50.258;19.062;2023-05-24T10:06:34;98714.66;;;14.40;80.60
53340;BME280;46212;50.258;19.062;2023-05-24T10:09:03;98708.22;;;14.48;79.94
53340;BME280;46212;50.258;19.062;2023-05-24T10:11:34;98708.59;;;14.56;79.21
53340;BME280;46212;50.258;19.062;2023-05-24T10:14:03;98709.56;;;14.67;78.60
53340;BME280;46212;50.258;19.062;2023-05-24T10:16:29;98714.50;;;14.78;77.73
53340;BME280;46212;50.258;19.062;2023-05-24T10:18:55;98721.59;;;14.79;76.56
53340;BME280;46212;50.258;19.062;2023-05-24T10:21:22;98713.66;;;14.86;76.23
53340;BME280;46212;50.258;19.062;2023-05-24T10:23:51;98724.78;;;14.86;75.79
53340;BME280;46212;50.258;19.062;2023-05-24T10:26:23;98722.84;;;14.78;77.18
53340;BME280;46212;50.258;19.062;2023-05-24T10:28:53;98726.41;;;14.78;76.93
53340;BME280;46212;50.258;19.062;2023-05-24T10:31:31;98736.38;;;14.85;76.52
53340;BME280;46212;50.258;19.062;2023-05-24T10:33:58;98729.88;;;14.73;76.58
53340;BME280;46212;50.258;19.062;2023-05-24T10:36:24;98730.72;;;14.79;76.79
53340;BME280;46212;50.258;19.062;2023-05-24T10:38:51;98733.19;;;14.92;76.14
53340;BME280;46212;50.258;19.062;2023-05-24T10:41:17;98732.50;;;14.97;75.96
53340;BME280;46212;50.258;19.062;2023-05-24T10:43:45;98742.66;;;15.00;75.36
53340;BME280;46212;50.258;19.062;2023-05-24T10:46:14;98739.44;;;14.87;75.22
53340;BME280;46212;50.258;19.062;2023-05-24T10:48:40;98741.25;;;14.75;75.86
53340;BME280;46212;50.258;19.062;2023-05-24T10:51:37;98740.28;;;14.93;75.67
53340;BME280;46212;50.258;19.062;2023-05-24T10:54:14;98741.91;;;15.00;75.21
53340;BME280;46212;50.258;19.062;2023-05-24T10:56:48;98740.75;;;15.06;75.27
53340;BME280;46212;50.258;19.062;2023-05-24T10:59:27;98744.00;;;15.05;75.16
53340;BME280;46212;50.258;19.062;2023-05-24T11:01:54;98747.88;;;14.93;75.32
53340;BME280;46212;50.258;19.062;2023-05-24T11:04:20;98741.66;;;14.68;76.31
53340;BME280;46212;50.258;19.062;2023-05-24T11:06:51;98739.75;;;14.74;76.33
53340;BME280;46212;50.258;19.062;2023-05-24T11:09:19;98742.63;;;14.80;76.74
53340;BME280;46212;50.258;19.062;2023-05-24T11:11:47;98735.91;;;14.86;75.99
53340;BME280;46212;50.258;19.062;2023-05-24T11:14:16;98730.28;;;15.01;76.13
53340;BME280;46212;50.258;19.062;2023-05-24T11:16:44;98745.94;;;14.99;75.80
53340;BME280;46212;50.258;19.062;2023-05-24T11:19:21;98735.59;;;14.99;75.85
53340;BME280;46212;50.258;19.062;2023-05-24T11:21:51;98738.47;;;14.90;75.95
53340;BME280;46212;50.258;19.062;2023-05-24T11:24:22;98738.66;;;14.72;76.54
53340;BME280;46212;50.258;19.062;2023-05-24T11:26:50;98746.75;;;14.70;77.11
53340;BME280;46212;50.258;19.062;2023-05-24T11:29:16;98743.69;;;14.68;77.17
53340;BME280;46212;50.258;19.062;2023-05-24T11:31:51;98746.25;;;14.71;77.36
53340;BME280;46212;50.258;19.062;2023-05-24T11:34:18;98749.53;;;14.70;77.83
53340;BME280;46212;50.258;19.062;2023-05-24T11:36:44;98749.59;;;14.75;77.76
53340;BME280;46212;50.258;19.062;2023-05-24T11:39:10;98732.22;;;14.95;76.69
53340;BME280;46212;50.258;19.062;2023-05-24T11:41:38;98748.38;;;15.26;75.81
53340;BME280;46212;50.258;19.062;2023-05-24T11:44:05;98750.03;;;15.53;75.23
53340;BME280;46212;50.258;19.062;2023-05-24T11:46:31;98746.16;;;15.65;73.84
53340;BME280;46212;50.258;19.062;2023-05-24T11:48:57;98758.69;;;15.75;73.81
53340;BME280;46212;50.258;19.062;2023-05-24T11:51:30;98747.69;;;15.66;73.62
53340;BME280;46212;50.258;19.062;2023-05-24T11:53:56;98752.56;;;15.71;73.08
53340;BME280;46212;50.258;19.062;2023-05-24T11:56:23;98751.50;;;15.68;72.79
53340;BME280;46212;50.258;19.062;2023-05-24T11:58:49;98746.66;;;15.63;73.45
53340;BME280;46212;50.258;19.062;2023-05-24T12:01:26;98747.50;;;15.69;73.34
53340;BME280;46212;50.258;19.062;2023-05-24T12:03:52;98750.88;;;15.59;72.99
53340;BME280;46212;50.258;19.062;2023-05-24T12:06:18;98744.78;;;15.40;73.60
53340;BME280;46212;50.258;19.062;2023-05-24T12:08:44;98742.66;;;15.35;74.23
53340;BME280;46212;50.258;19.062;2023-05-24T12:11:10;98741.50;;;15.41;74.81
53340;BME280;46212;50.258;19.062;2023-05-24T12:13:36;98742.25;;;15.57;73.92
53340;BME280;46212;50.258;19.062;2023-05-24T12:16:04;98739.81;;;15.64;73.29
53340;BME280;46212;50.258;19.062;2023-05-24T12:18:30;98743.59;;;15.81;72.77
53340;BME280;46212;50.258;19.062;2023-05-24T12:20:56;98727.28;;;15.74;72.25
53340;BME280;46212;50.258;19.062;2023-05-24T12:23:26;98749.97;;;15.67;72.58
53340;BME280;46212;50.258;19.062;2023-05-24T12:26:00;98752.16;;;15.78;73.19
53340;BME280;46212;50.258;19.062;2023-05-24T12:28:26;98756.47;;;15.79;72.69
53340;BME280;46212;50.258;19.062;2023-05-24T12:30:56;98752.56;;;15.71;73.43
53340;BME280;46212;50.258;19.062;2023-05-24T12:33:22;98755.41;;;15.76;73.26
53340;BME280;46212;50.258;19.062;2023-05-24T12:35:47;98746.50;;;15.72;73.32
53340;BME280;46212;50.258;19.062;2023-05-24T12:38:14;98752.69;;;15.62;73.18
53340;BME280;46212;50.258;19.062;2023-05-24T12:40:44;98754.69;;;15.41;74.06
53340;BME280;46212;50.258;19.062;2023-05-24T12:43:09;98753.50;;;15.48;74.73
53340;BME280;46212;50.258;19.062;2023-05-24T12:45:36;98757.63;;;15.52;74.30
53340;BME280;46212;50.258;19.062;2023-05-24T12:48:01;98750.81;;;15.53;75.22
53340;BME280;46212;50.258;19.062;2023-05-24T12:50:29;98748.22;;;15.50;74.13
53340;BME280;46212;50.258;19.062;2023-05-24T12:52:55;98753.38;;;15.77;73.76
53340;BME280;46212;50.258;19.062;2023-05-24T12:55:25;98755.34;;;15.71;73.69
53340;BME280;46212;50.258;19.062;2023-05-24T12:57:52;98749.72;;;15.85;73.16
53340;BME280;46212;50.258;19.062;2023-05-24T13:00:20;98741.63;;;15.87;72.80
53340;BME280;46212;50.258;19.062;2023-05-24T13:02:45;98753.09;;;15.95;72.86
53340;BME280;46212;50.258;19.062;2023-05-24T13:05:11;98747.66;;;16.06;72.13